Time;durP1;ratioP1;P1;durP2;ratioP2;P2;SDS_P1;SDS_P2;PMS_P1;PMS_P2;Temp;Humidity;BMP_temperature;BMP_pressure;BME280_temperature;BME280_humidity;BME280_pressure;Samples;Min_cycle;Max_cycle;Signal;HPM_P1;HPM_P2
2022/01/20 00:00:53;;;;;;;3.55;2.25;;;;;;;2.93;51.30;98828.25;3394987;29;20150;-72
2022/01/20 00:02:36;;;;;;;4.82;3.42;;;;;;;2.95;51.33;98826.28;3388463;29;20415;-74
2022/01/20 00:04:36;;;;;;;4.57;3.63;;;;;;;2.96;50.86;98823.47;3394516;29;20043;-72
2022/01/20 00:07:04;;;;;;;3.28;2.65;;;;;;;2.97;51.32;98808.50;3400958;29;20043;-72
2022/01/20 00:26:16;;;;;;;5.18;2.90;;;;;;;2.84;51.99;98790.63;3402316;29;20503;-72
2022/01/20 00:28:09;;;;;;;2.95;2.75;;;;;;;2.87;52.40;98787.66;3402745;29;20099;-72
2022/01/20 00:31:59;;;;;;;4.43;3.10;;;;;;;3.04;53.47;98794.50;3394231;29;20135;-72
2022/01/20 00:33:41;;;;;;;4.28;3.00;;;;;;;3.17;53.66;98798.41;3389173;29;20534;-72
2022/01/20 00:37:29;;;;;;;4.15;2.17;;;;;;;3.33;54.20;98779.09;3372746;29;20083;-73
2022/01/20 00:39:12;;;;;;;2.53;2.05;;;;;;;3.41;54.48;98782.53;3390435;29;20036;-72
2022/01/20 00:40:54;;;;;;;6.88;3.03;;;;;;;3.46;54.73;98769.69;3378955;29;20043;-72
2022/01/20 00:42:38;;;;;;;4.82;2.75;;;;;;;3.49;54.87;98771.97;3383763;29;20052;-73
2022/01/20 00:44:18;;;;;;;4.40;2.92;;;;;;;3.52;54.91;98772.63;3397364;29;20044;-72
2022/01/20 00:45:59;;;;;;;6.03;2.53;;;;;;;3.49;55.12;98779.06;3402432;29;20051;-71
2022/01/20 00:47:40;;;;;;;4.32;2.70;;;;;;;3.45;55.10;98789.09;3401855;29;21190;-73
2022/01/20 00:49:22;;;;;;;4.18;2.88;;;;;;;3.43;55.08;98792.88;3402905;29;20051;-72
2022/01/20 00:51:06;;;;;;;5.35;2.88;;;;;;;3.35;55.25;98770.03;3402053;29;20043;-73
2022/01/20 00:52:48;;;;;;;;;;;;;;;3.42;54.75;98752.56;3396786;29;20130;-72
2022/01/20 00:54:30;;;;;;;4.18;2.58;;;;;;;3.34;54.83;98760.50;3402391;29;19926;-72
2022/01/20 00:56:12;;;;;;;4.55;2.53;;;;;;;3.32;55.13;98746.69;3401666;29;21133;-72
2022/01/20 00:57:53;;;;;;;4.72;2.75;;;;;;;3.35;55.10;98759.50;3390203;29;20480;-72
2022/01/20 00:59:34;;;;;;;4.15;2.85;;;;;;;3.41;55.07;98764.09;3375717;29;20048;-72
2022/01/20 01:01:17;;;;;;;4.30;2.90;;;;;;;3.43;55.34;98751.59;3397453;29;20067;-72
2022/01/20 01:02:58;;;;;;;3.35;2.22;;;;;;;3.45;55.21;98749.59;3387679;29;20044;-69
2022/01/20 01:04:40;;;;;;;4.68;2.88;;;;;;;3.46;55.51;98753.06;3399238;29;20476;-73
2022/01/20 01:08:06;;;;;;;3.13;2.25;;;;;;;3.45;55.59;98746.13;3393786;29;20085;-71
2022/01/20 01:09:47;;;;;;;3.38;2.70;;;;;;;3.45;55.63;98741.69;3390045;29;20478;-70
2022/01/20 01:11:27;;;;;;;4.78;2.90;;;;;;;3.46;55.64;98745.97;3393192;29;20044;-68
2022/01/20 01:13:12;;;;;;;4.43;3.33;;;;;;;3.44;55.21;98741.88;3396585;29;20040;-70
2022/01/20 01:14:53;;;;;;;5.72;3.05;;;;;;;3.39;55.17;98745.03;3403503;29;20039;-71
2022/01/20 01:19:50;;;;;;;6.35;3.35;;;;;;;3.35;54.80;98748.16;3386547;29;20040;-70
2022/01/20 01:21:08;;;;;;;3.03;2.53;;;;;;;3.28;54.78;98725.16;3390236;29;20062;-70
2022/01/20 01:22:35;;;;;;;4.10;2.45;;;;;;;3.25;54.60;98740.47;3377403;29;20040;-70
2022/01/20 01:24:16;;;;;;;4.47;3.47;;;;;;;3.19;54.68;98738.53;3398849;29;20108;-71
2022/01/20 01:25:57;;;;;;;4.25;2.92;;;;;;;3.15;54.64;98724.88;3396324;29;20051;-70
2022/01/20 01:27:41;;;;;;;5.57;3.05;;;;;;;3.13;54.39;98739.22;3387909;29;20300;-70
2022/01/20 01:29:46;;;;;;;3.92;2.97;;;;;;;3.12;54.56;98727.03;3385438;29;20048;-69
2022/01/20 01:33:09;;;;;;;4.10;3.55;;;;;;;3.06;54.30;98726.72;3397397;29;20043;-72
2022/01/20 01:34:52;;;;;;;4.90;3.03;;;;;;;3.03;54.31;98734.13;3388845;29;20150;-69
2022/01/20 01:36:48;;;;;;;6.55;3.40;;;;;;;2.97;54.32;98738.28;3394902;29;20036;-70
2022/01/20 01:38:36;;;;;;;3.80;3.03;;;;;;;2.92;54.42;98730.06;3379155;29;20059;-70
2022/01/20 01:40:16;;;;;;;4.45;2.70;;;;;;;2.89;54.28;98729.56;3401012;29;20048;-71
2022/01/20 01:41:59;;;;;;;4.45;3.03;;;;;;;2.87;54.19;98740.28;3388685;29;20431;-70
2022/01/20 01:43:44;;;;;;;4.10;3.05;;;;;;;2.88;54.30;98735.81;3397170;29;20081;-70
2022/01/20 01:45:33;;;;;;;3.58;2.85;;;;;;;2.89;54.25;98725.16;3402909;29;20050;-70
2022/01/20 01:47:14;;;;;;;3.88;3.10;;;;;;;2.91;54.29;98725.78;3388133;29;20048;-70
2022/01/20 01:48:57;;;;;;;4.90;3.28;;;;;;;2.93;54.09;98729.06;3385813;29;20055;-71
2022/01/20 01:50:37;;;;;;;3.92;2.72;;;;;;;2.94;54.04;98730.69;3386506;29;20052;-70
2022/01/20 01:52:18;;;;;;;5.07;2.90;;;;;;;2.92;54.07;98719.53;3386225;29;20071;-71
2022/01/20 01:53:59;;;;;;;5.78;3.75;;;;;;;2.94;53.93;98721.97;3385744;29;20583;-71
2022/01/20 01:55:40;;;;;;;4.63;2.97;;;;;;;2.94;53.99;98722.78;3386040;29;20040;-69
2022/01/20 01:57:23;;;;;;;5.53;3.42;;;;;;;2.95;54.04;98724.47;3388696;29;20503;-70
2022/01/20 01:59:05;;;;;;;5.90;3.97;;;;;;;2.94;53.92;98735.13;3375082;29;20693;-70
2022/01/20 02:01:06;;;;;;;3.92;3.08;;;;;;;2.94;53.81;98719.34;3401608;29;20538;-68
2022/01/20 02:02:49;;;;;;;3.90;2.70;;;;;;;2.90;53.75;98716.25;3388006;29;20044;-69
2022/01/20 02:04:36;;;;;;;4.68;2.88;;;;;;;2.87;53.91;98711.34;3386785;29;20546;-69
2022/01/20 02:08:48;;;;;;;6.97;3.72;;;;;;;2.88;53.72;98717.41;3385470;29;20428;-72
2022/01/20 02:18:45;;;;;;;4.15;2.85;;;;;;;2.84;53.52;98698.53;3362142;29;20533;-71
2022/01/20 02:20:58;;;;;;;5.35;3.28;;;;;;;2.88;53.33;98693.72;3382480;29;20413;-70
2022/01/20 02:22:39;;;;;;;3.88;2.88;;;;;;;2.87;53.44;98686.84;3375405;29;20055;-71
2022/01/20 02:24:33;;;;;;;6.22;2.60;;;;;;;2.87;53.35;98692.91;3374673;29;20040;-72
2022/01/20 02:26:14;;;;;;;3.40;3.10;;;;;;;2.87;53.29;98677.13;3372204;29;20607;-70
2022/01/20 02:27:58;;;;;;;4.40;2.97;;;;;;;2.87;53.49;98685.00;3373057;29;20041;-71
2022/01/20 02:29:40;;;;;;;4.03;2.67;;;;;;;2.86;53.38;98683.34;3372232;29;20398;-72
2022/01/20 02:31:22;;;;;;;4.43;2.70;;;;;;;2.86;53.57;98664.13;3372592;29;20044;-72
2022/01/20 02:33:11;;;;;;;4.97;3.08;;;;;;;2.87;53.51;98660.53;3373130;29;20621;-70
2022/01/20 02:34:53;;;;;;;5.22;3.20;;;;;;;2.83;53.84;98662.66;3386824;29;20152;-72
2022/01/20 02:36:36;;;;;;;;;;;;;;;2.96;53.20;98664.75;3392343;29;20040;-71
2022/01/20 02:39:28;;;;;;;5.43;3.15;;;;;;;2.89;53.31;98662.00;3374802;29;19952;-70
2022/01/20 02:46:25;;;;;;;4.90;2.58;;;;;;;2.87;53.33;98650.81;3379334;29;20558;-70
2022/01/20 02:48:06;;;;;;;8.48;3.22;;;;;;;2.91;53.58;98641.56;3392489;29;20412;-69
2022/01/20 02:49:47;;;;;;;6.30;3.17;;;;;;;2.96;53.97;98641.06;3375868;29;20047;-69
2022/01/20 02:51:27;;;;;;;6.68;2.67;;;;;;;2.99;54.49;98644.16;3382381;29;20047;-69
2022/01/20 02:53:11;;;;;;;4.30;2.90;;;;;;;3.00;54.70;98645.81;3372253;29;20135;-69
2022/01/20 02:54:56;;;;;;;5.95;3.50;;;;;;;3.00;54.97;98632.66;3385589;29;20060;-69
2022/01/20 02:56:37;;;;;;;4.72;3.25;;;;;;;3.03;55.39;98645.47;3388634;29;20040;-69
2022/01/20 02:58:18;;;;;;;4.93;3.38;;;;;;;3.05;55.39;98632.94;3374512;29;20048;-69
2022/01/20 02:59:58;;;;;;;5.00;3.40;;;;;;;3.09;55.57;98640.50;3385528;29;20058;-68
2022/01/20 03:01:40;;;;;;;19.90;3.25;;;;;;;3.12;55.64;98642.78;3388520;29;20048;-69
2022/01/20 03:03:20;;;;;;;4.65;3.10;;;;;;;3.14;55.79;98635.53;3374640;29;20056;-68
2022/01/20 03:05:01;;;;;;;4.22;2.67;;;;;;;3.17;55.70;98643.09;3372075;29;20528;-69
2022/01/20 03:06:46;;;;;;;5.32;3.25;;;;;;;3.19;55.88;98638.47;3385213;29;20044;-68
2022/01/20 03:08:27;;;;;;;5.60;3.35;;;;;;;3.23;55.74;98634.50;3374107;29;20048;-68
2022/01/20 03:10:08;;;;;;;11.90;3.55;;;;;;;3.26;55.89;98634.97;3385162;29;20040;-68
2022/01/20 03:11:49;;;;;;;4.68;4.20;;;;;;;3.32;55.84;98633.44;3388278;29;20048;-68
2022/01/20 03:13:30;;;;;;;5.28;3.15;;;;;;;3.37;55.81;98632.94;3388198;29;20088;-69
2022/01/20 03:15:11;;;;;;;5.97;3.00;;;;;;;3.42;56.04;98639.31;3374334;29;20508;-68
2022/01/20 03:16:52;;;;;;;4.25;3.10;;;;;;;3.42;56.01;98639.31;3385495;29;20067;-69
2022/01/20 03:18:32;;;;;;;6.63;3.53;;;;;;;3.44;55.99;98634.69;3374528;29;20080;-69
2022/01/20 03:20:13;;;;;;;5.25;3.03;;;;;;;3.44;56.13;98636.53;3386135;29;20059;-70
2022/01/20 03:21:54;;;;;;;5.63;3.08;;;;;;;3.45;56.35;98638.16;3374334;29;20074;-70
2022/01/20 03:23:35;;;;;;;5.60;3.38;;;;;;;3.50;56.29;98635.81;3385577;29;20040;-69
2022/01/20 03:25:16;;;;;;;3.58;2.75;;;;;;;3.52;56.09;98625.94;3374478;29;20153;-68
2022/01/20 03:26:57;;;;;;;4.65;3.05;;;;;;;3.57;56.17;98633.31;3372025;29;20472;-70
2022/01/20 03:28:38;;;;;;;4.40;3.55;;;;;;;3.59;56.03;98640.03;3371822;29;20047;-71
2022/01/20 03:30:19;;;;;;;3.83;2.97;;;;;;;3.61;56.09;98631.94;3372134;29;20052;-69
2022/01/20 03:31:59;;;;;;;3.78;2.90;;;;;;;3.63;55.97;98629.97;3371739;29;20092;-69
2022/01/20 03:33:40;;;;;;;4.60;3.22;;;;;;;3.64;56.06;98642.13;3371790;29;20656;-69
2022/01/20 03:35:21;;;;;;;5.18;2.95;;;;;;;3.64;55.82;98623.69;3384500;29;20047;-69
2022/01/20 03:37:18;;;;;;;5.63;3.30;;;;;;;3.66;55.88;98621.69;3374217;29;20058;-69
2022/01/20 03:39:12;;;;;;;7.60;3.70;;;;;;;3.69;56.05;98622.19;3386295;29;20048;-68
2022/01/20 03:40:53;;;;;;;6.55;3.25;;;;;;;3.67;56.02;98612.81;3374046;29;20500;-69
2022/01/20 03:42:34;;;;;;;5.30;3.25;;;;;;;3.71;56.14;98622.78;3372971;29;20036;-70
2022/01/20 03:44:16;;;;;;;6.43;3.47;;;;;;;3.70;56.01;98613.25;3374496;29;20132;-70
2022/01/20 03:45:58;;;;;;;5.93;3.50;;;;;;;3.76;56.13;98614.38;3374355;29;20543;-68
2022/01/20 03:47:39;;;;;;;6.05;3.58;;;;;;;3.77;56.16;98610.75;3374432;29;20051;-69
2022/01/20 03:49:39;;;;;;;7.68;3.28;;;;;;;3.79;56.17;98610.56;3388198;29;20127;-70
2022/01/20 03:51:25;;;;;;;4.90;3.33;;;;;;;3.83;56.40;98604.75;3390033;29;20151;-69
2022/01/20 03:53:09;;;;;;;4.88;2.60;;;;;;;3.85;56.28;98607.22;3376676;29;20131;-69
2022/01/20 03:54:51;;;;;;;6.05;3.72;;;;;;;3.85;56.10;98610.69;3387184;29;20040;-69
2022/01/20 03:56:41;;;;;;;5.25;3.55;;;;;;;3.88;56.07;98606.88;3390821;29;20059;-69
2022/01/20 03:58:40;;;;;;;6.07;3.38;;;;;;;3.89;56.01;98614.59;3390316;29;20104;-69
2022/01/20 04:00:25;;;;;;;4.75;2.95;;;;;;;3.89;55.95;98614.59;3376518;29;20096;-71
2022/01/20 04:02:19;;;;;;;4.65;3.30;;;;;;;3.87;55.85;98600.78;3388838;29;20043;-69
2022/01/20 04:04:05;;;;;;;6.93;4.22;;;;;;;3.87;55.79;98611.34;3376400;29;20121;-70
2022/01/20 04:05:56;;;;;;;7.20;3.40;;;;;;;3.85;55.96;98602.78;3375318;29;20037;-68
2022/01/20 04:07:51;;;;;;;6.95;3.53;;;;;;;3.86;56.07;98611.50;3375656;29;20534;-67
2022/01/20 04:09:32;;;;;;;6.57;4.20;;;;;;;3.84;56.17;98601.13;3373957;29;20037;-68
2022/01/20 04:11:19;;;;;;;10.52;4.50;;;;;;;3.80;56.44;98599.84;3387740;29;20063;-68
2022/01/20 04:13:01;;;;;;;7.05;3.63;;;;;;;3.76;56.20;98592.47;3390715;29;20100;-68
2022/01/20 04:14:47;;;;;;;5.55;3.50;;;;;;;3.72;56.18;98586.75;3390916;29;20555;-68
2022/01/20 04:16:50;;;;;;;5.35;3.08;;;;;;;3.71;56.51;98585.91;3376402;29;20452;-69
2022/01/20 04:18:32;;;;;;;4.28;3.35;;;;;;;3.70;56.67;98588.75;3376757;29;20075;-71
2022/01/20 04:20:13;;;;;;;10.48;4.57;;;;;;;3.67;56.81;98581.19;3373928;29;20524;-67
2022/01/20 04:21:54;;;;;;;8.57;4.25;;;;;;;3.64;56.88;98585.00;3373585;29;20044;-69
2022/01/20 04:23:34;;;;;;;8.02;3.90;;;;;;;3.59;56.92;98575.97;3373874;29;20040;-70
2022/01/20 04:25:15;;;;;;;8.30;3.90;;;;;;;3.56;56.76;98581.59;3373730;29;20075;-69
2022/01/20 04:26:56;;;;;;;9.50;4.28;;;;;;;3.55;56.63;98574.69;3387441;29;20063;-69
2022/01/20 04:28:37;;;;;;;11.65;4.43;;;;;;;3.54;56.76;98579.16;3389350;29;20051;-67
2022/01/20 04:30:17;;;;;;;5.75;4.28;;;;;;;3.56;56.95;98571.06;3376395;29;20072;-69
2022/01/20 04:31:58;;;;;;;7.05;3.42;;;;;;;3.55;56.97;98574.69;3387232;29;20063;-69
2022/01/20 04:33:39;;;;;;;6.05;3.55;;;;;;;3.55;56.92;98569.44;3376028;29;20057;-68
2022/01/20 04:35:20;;;;;;;5.22;3.95;;;;;;;3.56;56.88;98571.06;3387524;29;20036;-68
2022/01/20 04:37:04;;;;;;;5.60;3.13;;;;;;;3.58;57.17;98569.88;3376533;29;20059;-69
2022/01/20 04:38:46;;;;;;;4.78;3.72;;;;;;;3.62;57.14;98567.75;3373855;29;20051;-69
2022/01/20 04:40:26;;;;;;;5.55;4.10;;;;;;;3.64;57.23;98569.19;3373377;29;20055;-69
2022/01/20 04:42:08;;;;;;;8.13;4.15;;;;;;;3.67;57.27;98563.56;3386683;29;20131;-72
2022/01/20 04:43:49;;;;;;;5.70;3.20;;;;;;;3.70;57.25;98560.56;3390300;29;20451;-70
2022/01/20 04:45:35;;;;;;;5.32;3.67;;;;;;;3.71;57.26;98558.75;3376296;29;20053;-71
2022/01/20 04:47:32;;;;;;;10.10;5.32;;;;;;;3.69;57.37;98569.47;3374168;29;20049;-71
2022/01/20 04:58:53;;;;;;;6.80;4.00;;;;;;;3.66;57.15;98567.19;3376023;29;20123;-70
2022/01/20 05:00:34;;;;;;;6.47;3.30;;;;;;;3.70;57.23;98563.19;3373631;29;20056;-71
2022/01/20 05:02:53;;;;;;;5.10;3.30;;;;;;;3.72;57.01;98557.78;3345195;29;20041;-70
2022/01/20 05:04:35;;;;;;;8.18;4.15;;;;;;;3.68;57.06;98549.38;3349884;29;20053;-70
2022/01/20 05:06:23;;;;;;;7.20;3.80;;;;;;;3.67;57.08;98557.47;3349627;29;20430;-69
2022/01/20 05:08:04;;;;;;;8.25;4.45;;;;;;;3.63;57.15;98567.53;3349604;29;20056;-70
2022/01/20 05:09:44;;;;;;;5.28;3.40;;;;;;;3.55;57.22;98559.72;3349769;29;20141;-71
2022/01/20 05:11:25;;;;;;;11.25;3.90;;;;;;;3.49;57.32;98558.59;3336638;29;20087;-71
2022/01/20 05:13:11;;;;;;;6.97;3.63;;;;;;;3.46;57.76;98564.25;3347107;29;20509;-70
2022/01/20 05:14:54;;;;;;;7.20;3.88;;;;;;;3.41;57.65;98558.69;3336797;29;20522;-69
2022/01/20 05:16:35;;;;;;;;;;;;;;;3.50;57.23;98565.50;3347910;29;20089;-69
2022/01/20 05:18:16;;;;;;;12.88;3.53;;;;;;;3.44;57.38;98560.94;3349427;29;19967;-70
2022/01/20 05:19:56;;;;;;;6.47;3.65;;;;;;;3.41;57.47;98553.41;3336508;29;20038;-70
2022/01/20 05:21:37;;;;;;;7.93;4.25;;;;;;;3.36;57.48;98545.22;3334255;29;20555;-73
2022/01/20 05:23:25;;;;;;;5.22;2.72;;;;;;;3.39;57.65;98554.59;3347386;29;20049;-72
2022/01/20 05:25:07;;;;;;;6.85;4.15;;;;;;;3.43;57.84;98548.78;3349610;29;20114;-74
2022/01/20 05:26:51;;;;;;;6.63;4.15;;;;;;;3.44;57.97;98547.78;3336908;29;20046;-74
2022/01/20 05:28:32;;;;;;;6.28;3.78;;;;;;;3.42;57.75;98549.78;3347539;29;20046;-74
2022/01/20 05:30:14;;;;;;;6.63;3.70;;;;;;;3.43;57.83;98538.25;3336990;29;20049;-74
2022/01/20 05:32:12;;;;;;;5.35;3.65;;;;;;;3.44;57.72;98542.50;3348960;29;20417;-71
2022/01/20 05:33:52;;;;;;;6.35;3.92;;;;;;;3.46;57.76;98540.53;3352637;29;20116;-70
2022/01/20 05:35:33;;;;;;;6.72;3.80;;;;;;;3.46;57.69;98539.72;3387059;29;20032;-71
2022/01/20 05:37:14;;;;;;;7.63;4.32;;;;;;;3.50;57.70;98538.34;3389629;29;20476;-73
2022/01/20 05:38:55;;;;;;;6.10;3.40;;;;;;;3.57;58.00;98530.56;3388643;29;20044;-75
2022/01/20 05:40:37;;;;;;;6.93;3.83;;;;;;;3.60;57.89;98535.47;3375739;29;20132;-74
2022/01/20 05:42:18;;;;;;;9.13;3.72;;;;;;;3.59;57.85;98534.66;3387117;29;20059;-74
2022/01/20 05:44:09;;;;;;;6.57;3.95;;;;;;;3.62;57.64;98529.03;3375218;29;20056;-71
2022/01/20 05:45:50;;;;;;;5.32;3.38;;;;;;;3.63;57.60;98535.94;3372896;29;20471;-73
2022/01/20 05:47:33;;;;;;;6.75;3.75;;;;;;;3.63;57.66;98529.84;3373091;29;20393;-74
2022/01/20 05:49:23;;;;;;;9.30;4.50;;;;;;;3.65;57.52;98530.50;3387995;29;20040;-75
2022/01/20 05:51:12;;;;;;;6.95;3.97;;;;;;;3.66;57.64;98530.28;3388639;29;20040;-74
2022/01/20 05:52:53;;;;;;;6.85;4.28;;;;;;;3.69;57.76;98544.94;3389150;29;20055;-74
2022/01/20 05:54:33;;;;;;;6.88;3.78;;;;;;;3.70;57.67;98536.84;3375330;29;20040;-74
2022/01/20 05:56:14;;;;;;;6.05;3.35;;;;;;;3.73;57.34;98533.03;3386571;29;20047;-73
2022/01/20 05:57:55;;;;;;;6.97;3.80;;;;;;;3.80;57.53;98536.59;3375150;29;20047;-73
2022/01/20 05:59:35;;;;;;;7.15;3.28;;;;;;;3.84;57.51;98543.13;3362470;29;20529;-73
2022/01/20 06:01:16;;;;;;;5.70;3.92;;;;;;;3.81;57.40;98527.69;3370308;29;20072;-73
2022/01/20 06:04:56;;;;;;;4.90;3.30;;;;;;;3.85;57.24;98531.63;3387529;29;20108;-73
2022/01/20 06:06:37;;;;;;;8.27;3.70;;;;;;;3.87;57.07;98526.16;3375173;29;20115;-74
2022/01/20 06:08:18;;;;;;;6.05;3.25;;;;;;;3.85;57.35;98523.72;3372585;29;20055;-73
2022/01/20 06:09:59;;;;;;;7.40;3.88;;;;;;;3.83;57.23;98528.34;3372769;29;20044;-74
2022/01/20 06:11:40;;;;;;;5.88;3.88;;;;;;;3.81;57.22;98525.06;3372980;29;20041;-72
2022/01/20 06:13:26;;;;;;;7.55;3.47;;;;;;;3.78;57.11;98517.50;3347334;29;20113;-73
2022/01/20 06:15:08;;;;;;;5.68;3.75;;;;;;;3.74;57.19;98510.94;3382096;29;20412;-74
2022/01/20 06:16:48;;;;;;;9.45;4.30;;;;;;;3.72;57.19;98520.88;3388129;29;20140;-74
2022/01/20 06:18:29;;;;;;;6.68;4.25;;;;;;;3.69;57.19;98508.03;3375023;29;20044;-74
2022/01/20 06:20:12;;;;;;;5.38;3.08;;;;;;;3.65;57.10;98498.88;3373074;29;20079;-74
2022/01/20 06:21:53;;;;;;;6.05;3.50;;;;;;;3.64;57.27;98495.44;3372502;29;20080;-74
2022/01/20 06:23:35;;;;;;;8.30;4.00;;;;;;;3.67;57.33;98496.88;3385524;29;20191;-74
2022/01/20 06:25:15;;;;;;;6.78;3.72;;;;;;;3.71;57.46;98503.41;3388899;29;20052;-75
2022/01/20 06:26:57;;;;;;;7.10;4.00;;;;;;;3.77;57.59;98505.34;3374679;29;20049;-73
2022/01/20 06:28:40;;;;;;;7.95;4.32;;;;;;;3.77;57.43;98489.53;3372860;29;20041;-73
2022/01/20 06:30:24;;;;;;;6.50;3.63;;;;;;;3.79;57.34;98494.59;3386519;29;20130;-74
2022/01/20 06:32:06;;;;;;;6.43;3.92;;;;;;;3.76;57.33;98503.69;3374848;29;20045;-75
2022/01/20 06:33:47;;;;;;;8.57;4.30;;;;;;;3.79;57.22;98503.31;3372102;29;20100;-73
2022/01/20 06:35:28;;;;;;;7.78;4.75;;;;;;;3.84;57.27;98495.69;3372244;29;20074;-75
2022/01/20 06:37:09;;;;;;;8.57;4.15;;;;;;;3.81;57.28;98489.97;3385962;29;20052;-75
2022/01/20 06:38:50;;;;;;;6.72;4.55;;;;;;;3.76;57.07;98498.41;3374812;29;20036;-75
2022/01/20 06:40:31;;;;;;;6.68;4.22;;;;;;;3.75;56.99;98499.44;3359280;29;20053;-74
2022/01/20 06:42:12;;;;;;;7.22;4.30;;;;;;;3.75;57.11;98498.63;3369836;29;20044;-75
2022/01/20 06:43:53;;;;;;;7.85;4.40;;;;;;;3.78;57.05;98506.97;3384986;29;20108;-76
2022/01/20 06:45:34;;;;;;;8.15;3.90;;;;;;;3.78;57.09;98512.25;3374805;29;20043;-75
2022/01/20 06:47:22;;;;;;;9.02;4.80;;;;;;;3.80;57.11;98510.25;3376192;29;20103;-75
2022/01/20 06:49:03;;;;;;;7.65;3.80;;;;;;;3.81;57.07;98511.88;3383284;29;20044;-74
2022/01/20 06:50:50;;;;;;;6.25;3.92;;;;;;;3.84;57.17;98495.69;3387754;29;20052;-75
2022/01/20 06:52:31;;;;;;;7.05;4.57;;;;;;;3.85;57.29;98507.91;3384955;29;20067;-73
2022/01/20 06:54:14;;;;;;;7.18;5.03;;;;;;;3.84;57.04;98498.34;3398914;29;20048;-74
2022/01/20 06:55:56;;;;;;;9.27;5.07;;;;;;;3.85;56.93;98504.44;3387277;29;20068;-74
2022/01/20 06:57:40;;;;;;;7.57;4.43;;;;;;;3.83;56.96;98504.63;3384980;29;20047;-74
2022/01/20 06:59:21;;;;;;;9.13;4.20;;;;;;;3.79;57.02;98502.50;3385080;29;20725;-75
2022/01/20 07:01:04;;;;;;;7.78;4.88;;;;;;;3.77;56.97;98507.13;3395279;29;20048;-72
2022/01/20 07:02:46;;;;;;;13.57;5.25;;;;;;;3.74;57.06;98510.13;3373696;29;20059;-75
2022/01/20 07:04:27;;;;;;;;;;;;;;;3.82;56.74;98510.91;3378908;29;20409;-74
2022/01/20 07:06:08;;;;;;;9.98;4.95;;;;;;;3.77;56.75;98515.88;3394406;29;20018;-71
2022/01/20 07:08:08;;;;;;;10.00;5.40;;;;;;;3.82;56.61;98513.53;3386166;29;20048;-74
2022/01/20 07:09:49;;;;;;;9.55;4.25;;;;;;;3.84;56.69;98506.25;3397119;29;20040;-74
2022/01/20 07:11:42;;;;;;;7.60;4.13;;;;;;;3.86;56.82;98509.53;3385308;29;20044;-73
2022/01/20 07:13:24;;;;;;;8.52;4.65;;;;;;;3.88;56.63;98512.81;3396932;29;20079;-72
2022/01/20 07:15:06;;;;;;;11.20;4.60;;;;;;;3.91;56.93;98511.63;3400061;29;20044;-74
2022/01/20 07:16:48;;;;;;;7.78;3.85;;;;;;;3.94;56.95;98506.78;3398019;29;20032;-77
2022/01/20 07:18:31;;;;;;;9.23;5.13;;;;;;;3.99;57.16;98495.72;3389354;29;20068;-72
2022/01/20 07:20:13;;;;;;;9.60;5.40;;;;;;;4.01;57.14;98499.00;3390432;29;20039;-77
2022/01/20 07:22:20;;;;;;;7.75;4.47;;;;;;;4.05;56.95;98499.44;3376429;29;20059;-75
2022/01/20 07:24:01;;;;;;;9.57;5.10;;;;;;;4.00;56.94;98496.53;3381144;29;20131;-74
2022/01/20 07:25:42;;;;;;;8.60;4.80;;;;;;;3.90;57.01;98487.09;3383555;29;20132;-72
2022/01/20 07:27:28;;;;;;;11.88;6.22;;;;;;;3.82;56.65;98489.81;3385169;29;20115;-72
2022/01/20 07:29:10;;;;;;;14.65;5.03;;;;;;;3.76;56.57;98485.25;3374805;29;20052;-73
2022/01/20 07:30:50;;;;;;;8.13;4.90;;;;;;;3.71;56.52;98484.97;3369130;29;20055;-72
2022/01/20 07:32:33;;;;;;;8.15;4.78;;;;;;;3.66;56.61;98472.31;3379924;29;20043;-72
2022/01/20 07:34:15;;;;;;;9.73;5.55;;;;;;;3.65;56.59;98480.44;3375556;29;20064;-74
2022/01/20 07:35:56;;;;;;;7.40;4.75;;;;;;;3.64;56.28;98473.50;3385315;29;20126;-74
2022/01/20 07:37:37;;;;;;;11.00;5.78;;;;;;;3.61;56.19;98479.16;3391974;29;20567;-74
2022/01/20 07:39:20;;;;;;;14.02;5.50;;;;;;;3.59;56.18;98481.97;3376170;29;20055;-77
2022/01/20 07:41:02;;;;;;;6.97;4.65;;;;;;;3.55;56.29;98485.13;3374307;29;20044;-74
2022/01/20 07:42:43;;;;;;;13.20;5.03;;;;;;;3.53;56.10;98480.03;3385859;29;20048;-74
2022/01/20 07:44:33;;;;;;;11.10;5.53;;;;;;;3.49;56.16;98489.31;3374715;29;20488;-79
2022/01/20 07:46:38;;;;;;;9.70;5.25;;;;;;;3.43;56.15;98477.69;3385389;29;20051;-76
2022/01/20 07:48:24;;;;;;;10.32;5.30;;;;;;;3.38;56.12;98481.81;3385667;29;20178;-73
2022/01/20 07:50:35;;;;;;;7.95;4.85;;;;;;;3.37;56.22;98473.09;3393291;29;20088;-75
2022/01/20 07:52:16;;;;;;;11.27;5.53;;;;;;;3.36;56.17;98482.03;3401702;29;20039;-77
2022/01/20 07:53:58;;;;;;;10.57;5.32;;;;;;;3.36;56.03;98465.41;3386833;29;20419;-77
2022/01/20 07:55:39;;;;;;;12.00;5.38;;;;;;;3.36;56.10;98465.41;3398506;29;20052;-72
2022/01/20 07:57:20;;;;;;;9.88;6.13;;;;;;;3.35;56.02;98469.03;3387166;29;20043;-74
2022/01/20 07:59:02;;;;;;;10.38;5.40;;;;;;;3.36;56.19;98466.22;3384748;29;20611;-73
2022/01/20 08:00:44;;;;;;;8.23;4.65;;;;;;;3.35;56.27;98469.84;3388480;29;20048;-73
2022/01/20 08:02:25;;;;;;;9.55;6.15;;;;;;;3.37;56.11;98467.84;3401211;29;20047;-75
2022/01/20 08:04:06;;;;;;;9.95;4.97;;;;;;;3.39;56.15;98476.38;3386996;29;20124;-73
2022/01/20 08:05:48;;;;;;;9.98;5.50;;;;;;;3.37;56.19;98477.56;3378321;29;20055;-75
2022/01/20 08:07:31;;;;;;;7.70;4.97;;;;;;;3.36;56.23;98486.47;3371922;29;20147;-73
2022/01/20 08:09:11;;;;;;;11.45;6.32;;;;;;;3.32;56.20;98475.47;3375982;29;20143;-76
2022/01/20 08:11:04;;;;;;;;;;;;;;;3.42;55.85;98476.03;3387483;29;20040;-72
2022/01/20 08:12:45;;;;;;;8.93;4.80;;;;;;;3.33;55.91;98469.22;3385080;29;19930;-76
2022/01/20 08:14:34;;;;;;;10.43;5.50;;;;;;;3.32;56.01;98469.38;3375832;29;20188;-75
2022/01/20 08:16:15;;;;;;;12.50;5.90;;;;;;;3.34;56.18;98488.47;3370515;29;20043;-75
2022/01/20 08:17:56;;;;;;;12.00;6.55;;;;;;;3.35;56.10;98488.25;3370400;29;20120;-72
2022/01/20 08:19:37;;;;;;;10.75;6.13;;;;;;;3.31;56.13;98479.09;3383570;29;20503;-73
2022/01/20 08:21:17;;;;;;;11.43;6.53;;;;;;;3.28;56.22;98480.28;3384194;29;20472;-75
2022/01/20 08:23:02;;;;;;;11.15;6.57;;;;;;;3.27;56.26;98480.44;3384414;29;21387;-75
2022/01/20 08:24:49;;;;;;;11.05;6.65;;;;;;;3.25;56.26;98475.38;3399003;29;20989;-75
2022/01/20 08:26:30;;;;;;;15.35;6.05;;;;;;;3.25;56.26;98469.25;3387186;29;20067;-76
2022/01/20 08:28:12;;;;;;;10.75;5.88;;;;;;;3.24;56.23;98465.00;3398596;29;20126;-74
2022/01/20 08:29:54;;;;;;;13.20;6.60;;;;;;;3.23;56.26;98460.75;3389823;29;20074;-74
2022/01/20 08:31:39;;;;;;;12.52;6.38;;;;;;;3.22;56.29;98477.53;3387375;29;20112;-73
2022/01/20 08:33:38;;;;;;;10.52;5.90;;;;;;;3.19;56.00;98464.72;3389193;29;20063;-73
2022/01/20 08:35:25;;;;;;;10.50;5.40;;;;;;;3.22;56.29;98465.16;3375811;29;20159;-74
2022/01/20 08:37:10;;;;;;;13.77;6.20;;;;;;;3.24;56.24;98457.09;3391786;29;20047;-72
2022/01/20 08:38:51;;;;;;;11.20;7.40;;;;;;;3.27;56.11;98457.56;3377228;29;20505;-71
2022/01/20 08:40:32;;;;;;;10.27;6.63;;;;;;;3.27;56.13;98454.09;3373271;29;20380;-73
2022/01/20 08:42:14;;;;;;;9.90;5.38;;;;;;;3.27;56.12;98454.91;3373530;29;20059;-73
2022/01/20 08:43:55;;;;;;;11.82;6.35;;;;;;;3.30;56.16;98460.84;3373571;29;20048;-73
2022/01/20 08:45:37;;;;;;;12.20;7.07;;;;;;;3.25;56.01;98450.81;3373664;29;20119;-74
2022/01/20 08:47:22;;;;;;;16.67;6.85;;;;;;;3.23;56.09;98427.31;3387956;29;20100;-76
2022/01/20 08:49:05;;;;;;;14.98;7.30;;;;;;;3.23;56.22;98423.88;3376049;29;20095;-75
2022/01/20 08:50:54;;;;;;;13.23;7.07;;;;;;;3.25;56.17;98414.81;3374653;29;20489;-74
2022/01/20 08:52:35;;;;;;;11.15;6.22;;;;;;;3.27;56.19;98423.31;3373353;29;20068;-77
2022/01/20 08:54:17;;;;;;;10.98;5.88;;;;;;;3.32;56.06;98421.97;3373490;29;20469;-75
2022/01/20 08:56:00;;;;;;;11.68;5.70;;;;;;;3.33;56.12;98407.81;3374085;29;20584;-74
2022/01/20 08:57:41;;;;;;;10.98;5.88;;;;;;;3.37;56.02;98419.63;3349423;29;20630;-73
2022/01/20 08:59:22;;;;;;;8.30;4.95;;;;;;;3.37;56.01;98404.63;3383481;29;20048;-74
2022/01/20 09:01:04;;;;;;;10.02;6.07;;;;;;;3.32;55.90;98428.06;3380598;29;20043;-74
2022/01/20 09:02:45;;;;;;;11.15;5.13;;;;;;;3.28;56.02;98418.91;3386707;29;20481;-74
2022/01/20 09:04:26;;;;;;;11.85;6.70;;;;;;;3.24;56.05;98417.63;3389006;29;20400;-74
2022/01/20 09:06:27;;;;;;;12.40;6.65;;;;;;;3.21;56.16;98399.53;3401276;29;20070;-74
2022/01/20 09:08:18;;;;;;;7.47;5.28;;;;;;;3.22;56.15;98411.69;3388857;29;20118;-74
2022/01/20 09:10:08;;;;;;;10.80;5.57;;;;;;;3.23;55.90;98394.94;3374517;29;20053;-78
2022/01/20 09:12:03;;;;;;;;;;;;;;;3.37;55.78;98390.66;3384620;29;20083;-75